sensor_id;sensor_type;location;lat;lon;timestamp;P1;durP1;ratioP1;P2;durP2;ratioP2
33740;SDS011;20065;48.380;10.892;2023-12-29T00:00:59;5.10;;;2.58;;
33740;SDS011;20065;48.380;10.892;2023-12-29T00:03:55;4.90;;;2.60;;
33740;SDS011;20065;48.380;10.892;2023-12-29T00:06:41;5.57;;;2.70;;
33740;SDS011;20065;48.380;10.892;2023-12-29T00:09:28;5.75;;;2.70;;
33740;SDS011;20065;48.380;10.892;2023-12-29T00:12:23;4.30;;;2.40;;
33740;SDS011;20065;48.380;10.892;2023-12-29T00:15:09;5.18;;;2.70;;
33740;SDS011;20065;48.380;10.892;2023-12-29T00:18:01;6.10;;;3.20;;
33740;SDS011;20065;48.380;10.892;2023-12-29T00:20:47;5.20;;;2.63;;
33740;SDS011;20065;48.380;10.892;2023-12-29T00:23:34;5.88;;;2.83;;
33740;SDS011;20065;48.380;10.892;2023-12-29T00:26:23;5.88;;;3.10;;
33740;SDS011;20065;48.380;10.892;2023-12-29T00:29:15;6.68;;;3.08;;
33740;SDS011;20065;48.380;10.892;2023-12-29T00:32:09;5.20;;;3.00;;
33740;SDS011;20065;48.380;10.892;2023-12-29T00:34:55;4.72;;;2.75;;
33740;SDS011;20065;48.380;10.892;2023-12-29T00:37:41;5.53;;;2.50;;
33740;SDS011;20065;48.380;10.892;2023-12-29T00:40:27;4.97;;;2.80;;
33740;SDS011;20065;48.380;10.892;2023-12-29T00:43:13;6.35;;;3.10;;
33740;SDS011;20065;48.380;10.892;2023-12-29T00:46:03;5.43;;;2.92;;
33740;SDS011;20065;48.380;10.892;2023-12-29T00:49:02;5.03;;;2.58;;
33740;SDS011;20065;48.380;10.892;2023-12-29T00:51:51;6.90;;;2.97;;
33740;SDS011;20065;48.380;10.892;2023-12-29T00:54:41;7.90;;;2.85;;
33740;SDS011;20065;48.380;10.892;2023-12-29T00:57:50;6.78;;;3.00;;
33740;SDS011;20065;48.380;10.892;2023-12-29T01:00:36;4.43;;;2.72;;
33740;SDS011;20065;48.380;10.892;2023-12-29T01:03:22;5.10;;;2.45;;
33740;SDS011;20065;48.380;10.892;2023-12-29T01:06:08;5.18;;;2.65;;
33740;SDS011;20065;48.380;10.892;2023-12-29T01:08:55;4.82;;;2.70;;
33740;SDS011;20065;48.380;10.892;2023-12-29T01:11:41;5.00;;;3.10;;
33740;SDS011;20065;48.380;10.892;2023-12-29T01:14:27;4.30;;;2.60;;
33740;SDS011;20065;48.380;10.892;2023-12-29T01:17:13;6.07;;;3.25;;
33740;SDS011;20065;48.380;10.892;2023-12-29T01:19:59;6.35;;;2.92;;
33740;SDS011;20065;48.380;10.892;2023-12-29T01:22:45;3.85;;;2.45;;
33740;SDS011;20065;48.380;10.892;2023-12-29T01:25:31;5.32;;;3.00;;
33740;SDS011;20065;48.380;10.892;2023-12-29T01:28:17;4.90;;;3.25;;
33740;SDS011;20065;48.380;10.892;2023-12-29T01:31:03;6.20;;;3.40;;
33740;SDS011;20065;48.380;10.892;2023-12-29T01:33:50;5.70;;;3.17;;
33740;SDS011;20065;48.380;10.892;2023-12-29T01:36:36;5.03;;;2.80;;
33740;SDS011;20065;48.380;10.892;2023-12-29T01:39:25;5.05;;;2.65;;
33740;SDS011;20065;48.380;10.892;2023-12-29T01:42:11;6.95;;;3.70;;
33740;SDS011;20065;48.380;10.892;2023-12-29T01:44:57;5.90;;;3.08;;
33740;SDS011;20065;48.380;10.892;2023-12-29T01:47:46;6.63;;;3.38;;
33740;SDS011;20065;48.380;10.892;2023-12-29T01:50:33;6.07;;;3.70;;
33740;SDS011;20065;48.380;10.892;2023-12-29T01:53:23;6.50;;;3.25;;
33740;SDS011;20065;48.380;10.892;2023-12-29T01:56:10;6.40;;;3.10;;
33740;SDS011;20065;48.380;10.892;2023-12-29T01:58:56;9.65;;;3.38;;
33740;SDS011;20065;48.380;10.892;2023-12-29T02:01:45;10.45;;;3.55;;
33740;SDS011;20065;48.380;10.892;2023-12-29T02:04:34;6.57;;;3.08;;
33740;SDS011;20065;48.380;10.892;2023-12-29T02:07:24;7.35;;;3.33;;
33740;SDS011;20065;48.380;10.892;2023-12-29T02:10:10;5.25;;;3.08;;
33740;SDS011;20065;48.380;10.892;2023-12-29T02:13:01;6.80;;;2.88;;
33740;SDS011;20065;48.380;10.892;2023-12-29T02:15:47;4.57;;;2.75;;
33740;SDS011;20065;48.380;10.892;2023-12-29T02:18:38;5.07;;;3.15;;
33740;SDS011;20065;48.380;10.892;2023-12-29T02:21:27;7.65;;;3.55;;
33740;SDS011;20065;48.380;10.892;2023-12-29T02:24:13;6.97;;;3.28;;
33740;SDS011;20065;48.380;10.892;2023-12-29T02:33:25;6.40;;;3.60;;
33740;SDS011;20065;48.380;10.892;2023-12-29T02:36:13;5.63;;;3.33;;
33740;SDS011;20065;48.380;10.892;2023-12-29T02:39:01;4.90;;;2.70;;
33740;SDS011;20065;48.380;10.892;2023-12-29T02:41:48;6.68;;;2.83;;
33740;SDS011;20065;48.380;10.892;2023-12-29T02:44:34;8.18;;;3.17;;
33740;SDS011;20065;48.380;10.892;2023-12-29T02:47:20;5.10;;;3.10;;
33740;SDS011;20065;48.380;10.892;2023-12-29T02:50:07;5.97;;;3.15;;
33740;SDS011;20065;48.380;10.892;2023-12-29T02:52:54;5.22;;;2.90;;
33740;SDS011;20065;48.380;10.892;2023-12-29T02:55:40;6.15;;;3.05;;
33740;SDS011;20065;48.380;10.892;2023-12-29T02:58:27;6.00;;;3.10;;
33740;SDS011;20065;48.380;10.892;2023-12-29T03:01:13;5.50;;;3.03;;
33740;SDS011;20065;48.380;10.892;2023-12-29T03:04:00;5.35;;;2.85;;
33740;SDS011;20065;48.380;10.892;2023-12-29T03:06:47;4.85;;;3.05;;
33740;SDS011;20065;48.380;10.892;2023-12-29T03:09:36;4.50;;;2.75;;
33740;SDS011;20065;48.380;10.892;2023-12-29T03:12:22;6.40;;;3.20;;
33740;SDS011;20065;48.380;10.892;2023-12-29T03:15:09;5.82;;;3.45;;
33740;SDS011;20065;48.380;10.892;2023-12-29T03:17:55;5.95;;;3.10;;
33740;SDS011;20065;48.380;10.892;2023-12-29T03:20:42;5.75;;;3.47;;
33740;SDS011;20065;48.380;10.892;2023-12-29T03:23:29;5.50;;;3.28;;
33740;SDS011;20065;48.380;10.892;2023-12-29T03:26:16;5.70;;;2.80;;
33740;SDS011;20065;48.380;10.892;2023-12-29T03:29:03;6.22;;;3.40;;
33740;SDS011;20065;48.380;10.892;2023-12-29T03:31:49;5.22;;;3.10;;
33740;SDS011;20065;48.380;10.892;2023-12-29T03:34:35;6.60;;;2.70;;
33740;SDS011;20065;48.380;10.892;2023-12-29T03:37:21;5.70;;;2.63;;
33740;SDS011;20065;48.380;10.892;2023-12-29T03:40:08;7.22;;;3.35;;
33740;SDS011;20065;48.380;10.892;2023-12-29T03:42:56;5.75;;;3.10;;
33740;SDS011;20065;48.380;10.892;2023-12-29T03:45:42;8.88;;;4.00;;
33740;SDS011;20065;48.380;10.892;2023-12-29T03:48:28;5.75;;;3.00;;
33740;SDS011;20065;48.380;10.892;2023-12-29T03:51:15;6.45;;;2.90;;
33740;SDS011;20065;48.380;10.892;2023-12-29T03:54:03;4.43;;;2.50;;
33740;SDS011;20065;48.380;10.892;2023-12-29T03:56:49;4.78;;;2.85;;
33740;SDS011;20065;48.380;10.892;2023-12-29T03:59:38;5.30;;;2.90;;
33740;SDS011;20065;48.380;10.892;2023-12-29T04:02:24;5.30;;;3.30;;
33740;SDS011;20065;48.380;10.892;2023-12-29T04:05:10;5.57;;;3.10;;
33740;SDS011;20065;48.380;10.892;2023-12-29T04:07:57;6.55;;;2.95;;
33740;SDS011;20065;48.380;10.892;2023-12-29T04:10:43;6.13;;;3.40;;
33740;SDS011;20065;48.380;10.892;2023-12-29T04:13:29;6.68;;;2.97;;
33740;SDS011;20065;48.380;10.892;2023-12-29T04:16:15;5.68;;;3.10;;
33740;SDS011;20065;48.380;10.892;2023-12-29T04:19:03;6.65;;;3.20;;
33740;SDS011;20065;48.380;10.892;2023-12-29T04:21:49;4.45;;;2.75;;
33740;SDS011;20065;48.380;10.892;2023-12-29T04:24:37;5.95;;;3.15;;
33740;SDS011;20065;48.380;10.892;2023-12-29T04:27:23;5.53;;;2.75;;
33740;SDS011;20065;48.380;10.892;2023-12-29T04:30:09;4.85;;;3.00;;
33740;SDS011;20065;48.380;10.892;2023-12-29T04:32:55;5.60;;;2.85;;
33740;SDS011;20065;48.380;10.892;2023-12-29T04:35:42;5.82;;;2.90;;
33740;SDS011;20065;48.380;10.892;2023-12-29T04:38:28;5.20;;;3.30;;
33740;SDS011;20065;48.380;10.892;2023-12-29T04:41:14;5.63;;;2.75;;
33740;SDS011;20065;48.380;10.892;2023-12-29T04:44:01;4.75;;;3.00;;
33740;SDS011;20065;48.380;10.892;2023-12-29T04:46:48;6.00;;;3.03;;
33740;SDS011;20065;48.380;10.892;2023-12-29T04:49:34;4.90;;;2.50;;
33740;SDS011;20065;48.380;10.892;2023-12-29T04:52:20;5.38;;;2.47;;
33740;SDS011;20065;48.380;10.892;2023-12-29T04:55:06;6.03;;;2.72;;
33740;SDS011;20065;48.380;10.892;2023-12-29T04:57:53;5.00;;;2.45;;
33740;SDS011;20065;48.380;10.892;2023-12-29T05:00:39;6.70;;;3.20;;
33740;SDS011;20065;48.380;10.892;2023-12-29T05:03:25;5.95;;;2.97;;
33740;SDS011;20065;48.380;10.892;2023-12-29T05:06:11;4.18;;;2.47;;
33740;SDS011;20065;48.380;10.892;2023-12-29T05:08:57;6.57;;;2.78;;
33740;SDS011;20065;48.380;10.892;2023-12-29T05:11:43;4.68;;;2.40;;
33740;SDS011;20065;48.380;10.892;2023-12-29T05:14:29;4.47;;;2.60;;
33740;SDS011;20065;48.380;10.892;2023-12-29T05:17:16;6.03;;;2.95;;
33740;SDS011;20065;48.380;10.892;2023-12-29T05:20:02;7.07;;;3.13;;
33740;SDS011;20065;48.380;10.892;2023-12-29T05:22:48;5.82;;;2.30;;
33740;SDS011;20065;48.380;10.892;2023-12-29T05:25:35;4.57;;;2.35;;
33740;SDS011;20065;48.380;10.892;2023-12-29T05:28:21;6.13;;;2.60;;
33740;SDS011;20065;48.380;10.892;2023-12-29T05:31:08;6.40;;;3.08;;
33740;SDS011;20065;48.380;10.892;2023-12-29T05:33:55;6.45;;;2.63;;
33740;SDS011;20065;48.380;10.892;2023-12-29T05:36:41;5.82;;;2.80;;
33740;SDS011;20065;48.380;10.892;2023-12-29T05:39:28;4.65;;;2.55;;
33740;SDS011;20065;48.380;10.892;2023-12-29T05:42:14;4.63;;;2.45;;
33740;SDS011;20065;48.380;10.892;2023-12-29T05:45:00;8.18;;;2.70;;
33740;SDS011;20065;48.380;10.892;2023-12-29T05:47:47;3.95;;;2.45;;
33740;SDS011;20065;48.380;10.892;2023-12-29T05:50:33;5.07;;;3.30;;
33740;SDS011;20065;48.380;10.892;2023-12-29T05:53:19;7.55;;;3.05;;
33740;SDS011;20065;48.380;10.892;2023-12-29T05:56:05;5.30;;;3.22;;
33740;SDS011;20065;48.380;10.892;2023-12-29T05:58:51;6.70;;;2.30;;
33740;SDS011;20065;48.380;10.892;2023-12-29T06:01:38;6.90;;;3.35;;
33740;SDS011;20065;48.380;10.892;2023-12-29T06:04:24;5.63;;;2.72;;
33740;SDS011;20065;48.380;10.892;2023-12-29T06:07:10;7.65;;;3.67;;
33740;SDS011;20065;48.380;10.892;2023-12-29T06:09:56;5.13;;;3.20;;
33740;SDS011;20065;48.380;10.892;2023-12-29T06:12:42;6.88;;;3.42;;
33740;SDS011;20065;48.380;10.892;2023-12-29T06:15:28;5.65;;;3.75;;
33740;SDS011;20065;48.380;10.892;2023-12-29T06:18:15;6.90;;;3.00;;
33740;SDS011;20065;48.380;10.892;2023-12-29T06:21:04;5.72;;;3.30;;
33740;SDS011;20065;48.380;10.892;2023-12-29T06:23:50;7.22;;;3.05;;
33740;SDS011;20065;48.380;10.892;2023-12-29T06:26:36;6.50;;;3.00;;
33740;SDS011;20065;48.380;10.892;2023-12-29T06:29:28;5.40;;;3.00;;
33740;SDS011;20065;48.380;10.892;2023-12-29T06:32:14;7.28;;;3.22;;
33740;SDS011;20065;48.380;10.892;2023-12-29T06:35:00;4.85;;;2.72;;
33740;SDS011;20065;48.380;10.892;2023-12-29T06:37:47;6.40;;;3.25;;
33740;SDS011;20065;48.380;10.892;2023-12-29T06:40:33;5.30;;;3.03;;
33740;SDS011;20065;48.380;10.892;2023-12-29T06:43:19;7.45;;;3.22;;
33740;SDS011;20065;48.380;10.892;2023-12-29T06:46:05;5.68;;;2.95;;
33740;SDS011;20065;48.380;10.892;2023-12-29T06:48:54;6.90;;;3.08;;
33740;SDS011;20065;48.380;10.892;2023-12-29T06:51:41;4.22;;;2.75;;
33740;SDS011;20065;48.380;10.892;2023-12-29T06:54:27;5.32;;;2.88;;
33740;SDS011;20065;48.380;10.892;2023-12-29T06:57:13;5.15;;;3.08;;
33740;SDS011;20065;48.380;10.892;2023-12-29T07:00:02;6.70;;;2.92;;
33740;SDS011;20065;48.380;10.892;2023-12-29T07:02:49;6.78;;;3.10;;
33740;SDS011;20065;48.380;10.892;2023-12-29T07:05:35;4.60;;;2.40;;
33740;SDS011;20065;48.380;10.892;2023-12-29T07:08:22;4.13;;;2.40;;
33740;SDS011;20065;48.380;10.892;2023-12-29T07:11:11;6.00;;;3.20;;
33740;SDS011;20065;48.380;10.892;2023-12-29T07:13:57;4.90;;;2.70;;
33740;SDS011;20065;48.380;10.892;2023-12-29T07:16:43;8.00;;;2.85;;
33740;SDS011;20065;48.380;10.892;2023-12-29T07:19:32;4.70;;;2.55;;
33740;SDS011;20065;48.380;10.892;2023-12-29T07:22:22;4.95;;;2.30;;
33740;SDS011;20065;48.380;10.892;2023-12-29T07:25:08;4.13;;;2.53;;
33740;SDS011;20065;48.380;10.892;2023-12-29T07:28:07;5.35;;;3.10;;
33740;SDS011;20065;48.380;10.892;2023-12-29T07:30:53;3.80;;;2.20;;
33740;SDS011;20065;48.380;10.892;2023-12-29T07:33:43;4.80;;;2.55;;
33740;SDS011;20065;48.380;10.892;2023-12-29T07:36:29;4.63;;;2.45;;
33740;SDS011;20065;48.380;10.892;2023-12-29T07:39:15;5.00;;;2.60;;
33740;SDS011;20065;48.380;10.892;2023-12-29T07:42:01;5.50;;;2.80;;
33740;SDS011;20065;48.380;10.892;2023-12-29T07:44:50;4.45;;;2.25;;
33740;SDS011;20065;48.380;10.892;2023-12-29T07:47:37;4.40;;;2.75;;
33740;SDS011;20065;48.380;10.892;2023-12-29T07:50:23;5.47;;;2.80;;
33740;SDS011;20065;48.380;10.892;2023-12-29T07:53:09;3.80;;;2.28;;
33740;SDS011;20065;48.380;10.892;2023-12-29T07:55:55;5.40;;;2.83;;
33740;SDS011;20065;48.380;10.892;2023-12-29T07:58:42;5.60;;;3.00;;
33740;SDS011;20065;48.380;10.892;2023-12-29T08:01:28;5.35;;;3.08;;
33740;SDS011;20065;48.380;10.892;2023-12-29T08:04:14;6.85;;;2.72;;
33740;SDS011;20065;48.380;10.892;2023-12-29T08:07:00;5.63;;;2.78;;
33740;SDS011;20065;48.380;10.892;2023-12-29T08:09:46;12.27;;;3.70;;
33740;SDS011;20065;48.380;10.892;2023-12-29T08:12:32;5.80;;;2.70;;
33740;SDS011;20065;48.380;10.892;2023-12-29T08:15:19;5.75;;;2.65;;
33740;SDS011;20065;48.380;10.892;2023-12-29T08:18:06;5.88;;;2.40;;
33740;SDS011;20065;48.380;10.892;2023-12-29T08:20:52;5.38;;;2.50;;
33740;SDS011;20065;48.380;10.892;2023-12-29T08:23:38;5.00;;;2.70;;
33740;SDS011;20065;48.380;10.892;2023-12-29T08:26:24;4.40;;;3.10;;
33740;SDS011;20065;48.380;10.892;2023-12-29T08:29:11;6.55;;;2.40;;
33740;SDS011;20065;48.380;10.892;2023-12-29T08:31:58;5.97;;;2.78;;
33740;SDS011;20065;48.380;10.892;2023-12-29T08:34:45;4.95;;;2.78;;
33740;SDS011;20065;48.380;10.892;2023-12-29T08:37:31;4.45;;;2.60;;
33740;SDS011;20065;48.380;10.892;2023-12-29T08:40:18;5.60;;;2.85;;
33740;SDS011;20065;48.380;10.892;2023-12-29T08:43:05;5.30;;;2.97;;
33740;SDS011;20065;48.380;10.892;2023-12-29T08:45:51;6.68;;;3.50;;
33740;SDS011;20065;48.380;10.892;2023-12-29T08:48:37;5.22;;;2.95;;
33740;SDS011;20065;48.380;10.892;2023-12-29T08:51:23;4.82;;;2.80;;
33740;SDS011;20065;48.380;10.892;2023-12-29T08:54:10;4.78;;;2.47;;
33740;SDS011;20065;48.380;10.892;2023-12-29T08:56:56;5.40;;;2.80;;
33740;SDS011;20065;48.380;10.892;2023-12-29T08:59:42;4.18;;;2.40;;
33740;SDS011;20065;48.380;10.892;2023-12-29T09:02:28;4.20;;;2.50;;
33740;SDS011;20065;48.380;10.892;2023-12-29T09:05:14;3.95;;;2.42;;
33740;SDS011;20065;48.380;10.892;2023-12-29T09:08:01;4.53;;;2.20;;
33740;SDS011;20065;48.380;10.892;2023-12-29T09:10:47;5.70;;;3.28;;
33740;SDS011;20065;48.380;10.892;2023-12-29T09:13:33;3.65;;;2.38;;
33740;SDS011;20065;48.380;10.892;2023-12-29T09:16:19;5.70;;;2.05;;
33740;SDS011;20065;48.380;10.892;2023-12-29T09:19:06;4.80;;;2.60;;
33740;SDS011;20065;48.380;10.892;2023-12-29T09:21:52;4.25;;;2.10;;
33740;SDS011;20065;48.380;10.892;2023-12-29T09:24:38;4.95;;;2.50;;
33740;SDS011;20065;48.380;10.892;2023-12-29T09:27:25;4.68;;;2.60;;
33740;SDS011;20065;48.380;10.892;2023-12-29T09:30:11;4.40;;;2.17;;
33740;SDS011;20065;48.380;10.892;2023-12-29T09:32:58;5.20;;;2.60;;
33740;SDS011;20065;48.380;10.892;2023-12-29T09:35:44;4.53;;;2.00;;
33740;SDS011;20065;48.380;10.892;2023-12-29T09:38:30;5.28;;;2.40;;
33740;SDS011;20065;48.380;10.892;2023-12-29T09:41:16;4.20;;;2.17;;
33740;SDS011;20065;48.380;10.892;2023-12-29T09:44:05;5.13;;;2.00;;
33740;SDS011;20065;48.380;10.892;2023-12-29T09:47:02;6.50;;;1.85;;
33740;SDS011;20065;48.380;10.892;2023-12-29T09:49:49;3.55;;;1.88;;
33740;SDS011;20065;48.380;10.892;2023-12-29T09:52:37;5.65;;;2.20;;
33740;SDS011;20065;48.380;10.892;2023-12-29T09:55:25;7.35;;;2.33;;
33740;SDS011;20065;48.380;10.892;2023-12-29T09:58:12;4.05;;;2.20;;
33740;SDS011;20065;48.380;10.892;2023-12-29T10:00:58;3.90;;;2.20;;
33740;SDS011;20065;48.380;10.892;2023-12-29T10:03:46;4.05;;;2.15;;
33740;SDS011;20065;48.380;10.892;2023-12-29T10:06:34;3.97;;;1.80;;
33740;SDS011;20065;48.380;10.892;2023-12-29T10:09:24;4.07;;;1.90;;
33740;SDS011;20065;48.380;10.892;2023-12-29T10:12:11;5.40;;;1.57;;
33740;SDS011;20065;48.380;10.892;2023-12-29T10:17:56;3.53;;;1.80;;
33740;SDS011;20065;48.380;10.892;2023-12-29T10:24:10;5.80;;;1.97;;
33740;SDS011;20065;48.380;10.892;2023-12-29T10:27:00;10.05;;;2.30;;
33740;SDS011;20065;48.380;10.892;2023-12-29T10:29:46;3.30;;;1.70;;
33740;SDS011;20065;48.380;10.892;2023-12-29T10:32:32;3.60;;;1.97;;
33740;SDS011;20065;48.380;10.892;2023-12-29T10:35:18;3.57;;;2.03;;
33740;SDS011;20065;48.380;10.892;2023-12-29T10:38:11;4.35;;;2.15;;
33740;SDS011;20065;48.380;10.892;2023-12-29T10:41:13;4.68;;;1.88;;
33740;SDS011;20065;48.380;10.892;2023-12-29T10:44:06;4.77;;;2.80;;
33740;SDS011;20065;48.380;10.892;2023-12-29T10:46:54;4.20;;;2.33;;
33740;SDS011;20065;48.380;10.892;2023-12-29T10:49:40;4.43;;;1.73;;
33740;SDS011;20065;48.380;10.892;2023-12-29T10:52:27;3.30;;;1.87;;
33740;SDS011;20065;48.380;10.892;2023-12-29T10:55:23;3.97;;;2.00;;
33740;SDS011;20065;48.380;10.892;2023-12-29T10:58:15;3.20;;;1.80;;
33740;SDS011;20065;48.380;10.892;2023-12-29T11:01:04;5.45;;;2.05;;
33740;SDS011;20065;48.380;10.892;2023-12-29T11:04:08;3.90;;;2.20;;
33740;SDS011;20065;48.380;10.892;2023-12-29T11:06:55;4.27;;;2.40;;
33740;SDS011;20065;48.380;10.892;2023-12-29T11:09:41;7.13;;;2.17;;
33740;SDS011;20065;48.380;10.892;2023-12-29T11:12:42;5.73;;;2.43;;
33740;SDS011;20065;48.380;10.892;2023-12-29T11:15:30;4.40;;;1.97;;
33740;SDS011;20065;48.380;10.892;2023-12-29T11:23:28;4.27;;;2.00;;
33740;SDS011;20065;48.380;10.892;2023-12-29T11:38:19;4.93;;;2.70;;
33740;SDS011;20065;48.380;10.892;2023-12-29T11:44:27;9.20;;;1.80;;
33740;SDS011;20065;48.380;10.892;2023-12-29T11:50:33;3.88;;;2.10;;
33740;SDS011;20065;48.380;10.892;2023-12-29T11:53:31;3.93;;;1.97;;
33740;SDS011;20065;48.380;10.892;2023-12-29T11:56:25;3.17;;;1.87;;
33740;SDS011;20065;48.380;10.892;2023-12-29T12:11:48;3.53;;;2.07;;
33740;SDS011;20065;48.380;10.892;2023-12-29T12:18:27;3.95;;;2.20;;
33740;SDS011;20065;48.380;10.892;2023-12-29T12:27:45;4.23;;;2.10;;
33740;SDS011;20065;48.380;10.892;2023-12-29T12:30:33;3.80;;;1.80;;
33740;SDS011;20065;48.380;10.892;2023-12-29T12:33:33;4.53;;;2.00;;
33740;SDS011;20065;48.380;10.892;2023-12-29T12:36:19;5.05;;;2.33;;
33740;SDS011;20065;48.380;10.892;2023-12-29T12:39:06;3.73;;;1.90;;
33740;SDS011;20065;48.380;10.892;2023-12-29T12:41:53;3.67;;;1.87;;
33740;SDS011;20065;48.380;10.892;2023-12-29T12:44:40;5.17;;;2.30;;
33740;SDS011;20065;48.380;10.892;2023-12-29T12:47:32;3.93;;;1.80;;
33740;SDS011;20065;48.380;10.892;2023-12-29T12:50:20;3.72;;;1.65;;
33740;SDS011;20065;48.380;10.892;2023-12-29T12:53:07;4.30;;;2.00;;
33740;SDS011;20065;48.380;10.892;2023-12-29T12:55:54;3.50;;;1.97;;
33740;SDS011;20065;48.380;10.892;2023-12-29T12:58:41;3.67;;;1.90;;
33740;SDS011;20065;48.380;10.892;2023-12-29T13:01:33;4.73;;;2.23;;
33740;SDS011;20065;48.380;10.892;2023-12-29T13:04:21;4.60;;;2.10;;
33740;SDS011;20065;48.380;10.892;2023-12-29T13:07:08;3.90;;;1.80;;
33740;SDS011;20065;48.380;10.892;2023-12-29T13:09:54;3.13;;;1.70;;
33740;SDS011;20065;48.380;10.892;2023-12-29T13:12:50;3.20;;;1.60;;
33740;SDS011;20065;48.380;10.892;2023-12-29T13:15:45;3.50;;;1.90;;
33740;SDS011;20065;48.380;10.892;2023-12-29T13:18:33;5.50;;;1.70;;
33740;SDS011;20065;48.380;10.892;2023-12-29T13:21:20;3.23;;;1.60;;
33740;SDS011;20065;48.380;10.892;2023-12-29T13:24:07;3.73;;;1.90;;
33740;SDS011;20065;48.380;10.892;2023-12-29T13:27:06;3.77;;;1.80;;
33740;SDS011;20065;48.380;10.892;2023-12-29T13:29:53;3.47;;;1.83;;
33740;SDS011;20065;48.380;10.892;2023-12-29T13:32:40;4.75;;;1.60;;
33740;SDS011;20065;48.380;10.892;2023-12-29T13:35:35;3.45;;;1.85;;
33740;SDS011;20065;48.380;10.892;2023-12-29T13:38:28;4.70;;;1.90;;
33740;SDS011;20065;48.380;10.892;2023-12-29T13:41:19;2.93;;;1.50;;
33740;SDS011;20065;48.380;10.892;2023-12-29T13:44:08;3.50;;;1.60;;
33740;SDS011;20065;48.380;10.892;2023-12-29T13:46:54;4.03;;;1.90;;
33740;SDS011;20065;48.380;10.892;2023-12-29T13:49:42;4.30;;;2.03;;
33740;SDS011;20065;48.380;10.892;2023-12-29T13:52:29;3.70;;;1.67;;
33740;SDS011;20065;48.380;10.892;2023-12-29T13:55:22;4.00;;;1.63;;
33740;SDS011;20065;48.380;10.892;2023-12-29T13:58:09;3.25;;;1.60;;
33740;SDS011;20065;48.380;10.892;2023-12-29T14:00:59;3.42;;;1.60;;
33740;SDS011;20065;48.380;10.892;2023-12-29T14:03:58;2.92;;;1.58;;
33740;SDS011;20065;48.380;10.892;2023-12-29T14:06:55;4.85;;;1.60;;
33740;SDS011;20065;48.380;10.892;2023-12-29T14:09:46;3.35;;;1.30;;
33740;SDS011;20065;48.380;10.892;2023-12-29T14:12:33;3.70;;;1.50;;
33740;SDS011;20065;48.380;10.892;2023-12-29T14:19:34;3.80;;;1.95;;
33740;SDS011;20065;48.380;10.892;2023-12-29T14:22:22;3.07;;;1.43;;
33740;SDS011;20065;48.380;10.892;2023-12-29T14:25:08;3.23;;;1.60;;
33740;SDS011;20065;48.380;10.892;2023-12-29T14:27:58;3.03;;;1.33;;
33740;SDS011;20065;48.380;10.892;2023-12-29T14:30:44;3.87;;;1.40;;
33740;SDS011;20065;48.380;10.892;2023-12-29T14:33:31;3.63;;;1.27;;
33740;SDS011;20065;48.380;10.892;2023-12-29T14:36:17;3.40;;;1.57;;
33740;SDS011;20065;48.380;10.892;2023-12-29T14:39:03;5.50;;;1.50;;
33740;SDS011;20065;48.380;10.892;2023-12-29T14:41:50;2.45;;;1.00;;
33740;SDS011;20065;48.380;10.892;2023-12-29T14:44:38;2.87;;;1.23;;
33740;SDS011;20065;48.380;10.892;2023-12-29T14:47:25;2.88;;;1.30;;
33740;SDS011;20065;48.380;10.892;2023-12-29T14:50:11;3.80;;;1.53;;
33740;SDS011;20065;48.380;10.892;2023-12-29T14:52:57;2.80;;;1.20;;
33740;SDS011;20065;48.380;10.892;2023-12-29T14:55:43;2.80;;;1.40;;
33740;SDS011;20065;48.380;10.892;2023-12-29T14:58:30;3.65;;;1.45;;
33740;SDS011;20065;48.380;10.892;2023-12-29T15:01:17;3.30;;;1.50;;
33740;SDS011;20065;48.380;10.892;2023-12-29T15:04:04;2.93;;;1.57;;
33740;SDS011;20065;48.380;10.892;2023-12-29T15:06:50;3.08;;;1.30;;
33740;SDS011;20065;48.380;10.892;2023-12-29T15:09:36;5.50;;;1.60;;
33740;SDS011;20065;48.380;10.892;2023-12-29T15:12:22;4.55;;;1.60;;
33740;SDS011;20065;48.380;10.892;2023-12-29T15:15:09;5.30;;;1.95;;
33740;SDS011;20065;48.380;10.892;2023-12-29T15:17:56;3.58;;;1.50;;
33740;SDS011;20065;48.380;10.892;2023-12-29T15:20:42;3.60;;;1.92;;
33740;SDS011;20065;48.380;10.892;2023-12-29T15:23:29;4.35;;;2.10;;
33740;SDS011;20065;48.380;10.892;2023-12-29T15:26:19;3.43;;;1.50;;
33740;SDS011;20065;48.380;10.892;2023-12-29T15:29:05;4.50;;;1.63;;
33740;SDS011;20065;48.380;10.892;2023-12-29T15:31:52;3.87;;;1.80;;
33740;SDS011;20065;48.380;10.892;2023-12-29T15:34:38;6.90;;;2.60;;
33740;SDS011;20065;48.380;10.892;2023-12-29T15:37:24;4.45;;;2.17;;
33740;SDS011;20065;48.380;10.892;2023-12-29T15:40:11;3.20;;;1.52;;
33740;SDS011;20065;48.380;10.892;2023-12-29T15:42:57;3.60;;;1.77;;
33740;SDS011;20065;48.380;10.892;2023-12-29T15:45:44;4.72;;;2.15;;
33740;SDS011;20065;48.380;10.892;2023-12-29T15:48:30;3.15;;;1.73;;
33740;SDS011;20065;48.380;10.892;2023-12-29T15:51:16;5.30;;;2.35;;
33740;SDS011;20065;48.380;10.892;2023-12-29T15:54:02;4.70;;;2.20;;
33740;SDS011;20065;48.380;10.892;2023-12-29T15:56:49;3.70;;;1.83;;
33740;SDS011;20065;48.380;10.892;2023-12-29T15:59:35;4.40;;;2.37;;
33740;SDS011;20065;48.380;10.892;2023-12-29T16:02:21;3.85;;;2.20;;
33740;SDS011;20065;48.380;10.892;2023-12-29T16:05:09;3.55;;;2.03;;
33740;SDS011;20065;48.380;10.892;2023-12-29T16:07:56;4.93;;;2.40;;
33740;SDS011;20065;48.380;10.892;2023-12-29T16:10:42;3.50;;;1.90;;
33740;SDS011;20065;48.380;10.892;2023-12-29T16:13:28;4.65;;;2.15;;
33740;SDS011;20065;48.380;10.892;2023-12-29T16:16:14;4.13;;;2.28;;
33740;SDS011;20065;48.380;10.892;2023-12-29T16:19:01;5.78;;;2.05;;
33740;SDS011;20065;48.380;10.892;2023-12-29T16:21:48;4.87;;;2.60;;
33740;SDS011;20065;48.380;10.892;2023-12-29T16:24:37;5.07;;;2.70;;
33740;SDS011;20065;48.380;10.892;2023-12-29T16:27:24;5.20;;;2.42;;
33740;SDS011;20065;48.380;10.892;2023-12-29T16:30:13;5.07;;;2.47;;
33740;SDS011;20065;48.380;10.892;2023-12-29T16:33:00;3.80;;;1.90;;
33740;SDS011;20065;48.380;10.892;2023-12-29T16:35:46;4.20;;;2.70;;
33740;SDS011;20065;48.380;10.892;2023-12-29T16:38:32;6.15;;;2.65;;
33740;SDS011;20065;48.380;10.892;2023-12-29T16:41:19;4.32;;;2.10;;
33740;SDS011;20065;48.380;10.892;2023-12-29T16:44:09;5.05;;;2.22;;
33740;SDS011;20065;48.380;10.892;2023-12-29T16:46:55;5.95;;;2.53;;
33740;SDS011;20065;48.380;10.892;2023-12-29T16:49:44;6.03;;;2.42;;
33740;SDS011;20065;48.380;10.892;2023-12-29T16:52:31;5.45;;;2.60;;
33740;SDS011;20065;48.380;10.892;2023-12-29T16:55:17;5.35;;;2.33;;
33740;SDS011;20065;48.380;10.892;2023-12-29T16:58:04;5.03;;;2.75;;
33740;SDS011;20065;48.380;10.892;2023-12-29T17:00:50;4.70;;;2.05;;
33740;SDS011;20065;48.380;10.892;2023-12-29T17:03:40;4.28;;;2.35;;
33740;SDS011;20065;48.380;10.892;2023-12-29T17:06:26;4.03;;;2.10;;
33740;SDS011;20065;48.380;10.892;2023-12-29T17:09:13;4.60;;;2.40;;
33740;SDS011;20065;48.380;10.892;2023-12-29T17:11:59;5.90;;;2.40;;
33740;SDS011;20065;48.380;10.892;2023-12-29T17:14:47;6.70;;;2.35;;
33740;SDS011;20065;48.380;10.892;2023-12-29T17:17:33;3.75;;;2.22;;
33740;SDS011;20065;48.380;10.892;2023-12-29T17:20:19;3.55;;;1.80;;
33740;SDS011;20065;48.380;10.892;2023-12-29T17:23:06;4.07;;;2.10;;
33740;SDS011;20065;48.380;10.892;2023-12-29T17:25:53;5.35;;;2.22;;
33740;SDS011;20065;48.380;10.892;2023-12-29T17:28:39;3.85;;;2.00;;
33740;SDS011;20065;48.380;10.892;2023-12-29T17:31:26;3.97;;;1.95;;
33740;SDS011;20065;48.380;10.892;2023-12-29T17:34:12;5.18;;;2.20;;
33740;SDS011;20065;48.380;10.892;2023-12-29T17:36:58;3.65;;;2.20;;